createdAt,value
2022-11-17T00:00:49.512Z,94.40
2022-11-17T00:03:39.152Z,94.40
2022-11-17T00:06:27.309Z,94.40
2022-11-17T00:09:17.775Z,94.50
2022-11-17T00:12:22.764Z,94.50
2022-11-17T00:15:11.143Z,94.50
2022-11-17T00:17:59.050Z,94.60
2022-11-17T00:20:58.346Z,94.50
2022-11-17T00:23:50.935Z,94.50
2022-11-17T00:27:00.886Z,94.40
2022-11-17T00:29:51.287Z,94.40
2022-11-17T00:32:55.890Z,94.40
2022-11-17T00:35:44.444Z,94.50
2022-11-17T00:38:33.955Z,94.60
2022-11-17T00:41:22.191Z,94.60
2022-11-17T00:44:11.137Z,94.60
2022-11-17T00:46:59.741Z,94.70
2022-11-17T00:49:49.894Z,94.70
2022-11-17T00:52:38.098Z,94.80
2022-11-17T00:55:26.255Z,94.80
2022-11-17T00:58:15.547Z,94.80
2022-11-17T01:01:05.717Z,94.90
2022-11-17T01:04:04.417Z,94.80
2022-11-17T01:06:55.723Z,94.90
2022-11-17T01:09:45.558Z,94.90
2022-11-17T01:12:33.497Z,94.90
2022-11-17T01:15:21.258Z,95.00
2022-11-17T01:18:09.874Z,95.10
2022-11-17T01:21:06.335Z,95.10
2022-11-17T01:24:00.095Z,95.10
2022-11-17T01:26:52.607Z,95.20
2022-11-17T01:29:42.541Z,95.20
2022-11-17T01:32:33.711Z,95.20
2022-11-17T01:35:24.256Z,95.30
2022-11-17T01:38:14.447Z,95.30
2022-11-17T01:41:08.487Z,95.30
2022-11-17T01:44:00.728Z,95.30
2022-11-17T01:46:50.551Z,95.30
2022-11-17T01:49:39.914Z,95.30
2022-11-17T01:52:30.044Z,95.30
2022-11-17T01:55:21.409Z,95.30
2022-11-17T01:58:17.316Z,95.30
2022-11-17T02:01:08.709Z,95.40
2022-11-17T02:03:59.696Z,95.30
2022-11-17T02:06:51.123Z,95.40
2022-11-17T02:09:44.071Z,95.40
2022-11-17T02:12:36.160Z,95.40
2022-11-17T02:15:28.866Z,95.50
2022-11-17T02:18:19.189Z,95.50
2022-11-17T02:21:32.623Z,95.50
2022-11-17T02:24:39.144Z,95.50
2022-11-17T02:27:44.896Z,95.50
2022-11-17T02:30:40.286Z,95.60
2022-11-17T02:33:38.920Z,95.60
2022-11-17T02:36:35.105Z,95.60
2022-11-17T02:39:29.098Z,95.60
2022-11-17T02:42:45.709Z,95.60
2022-11-17T02:45:40.944Z,95.60
2022-11-17T02:48:35.904Z,95.60
2022-11-17T02:51:28.006Z,95.70
2022-11-17T02:54:18.040Z,95.70
2022-11-17T02:57:08.638Z,95.70
2022-11-17T03:00:00.383Z,95.70
2022-11-17T03:03:13.795Z,95.70
2022-11-17T03:06:19.125Z,96.10
2022-11-17T03:09:18.578Z,95.70
2022-11-17T03:12:16.723Z,95.70
2022-11-17T03:15:19.557Z,95.70
2022-11-17T03:18:21.236Z,95.70
2022-11-17T03:21:20.244Z,95.70
2022-11-17T03:24:16.305Z,95.70
2022-11-17T03:27:11.266Z,95.70
2022-11-17T03:30:05.704Z,95.70
2022-11-17T03:32:56.944Z,95.70
2022-11-17T03:35:53.486Z,95.70
2022-11-17T03:38:48.433Z,95.70
2022-11-17T03:41:48.280Z,95.70
2022-11-17T03:44:42.384Z,95.60
2022-11-17T03:47:31.783Z,95.70
2022-11-17T03:50:28.263Z,95.60
2022-11-17T03:53:20.994Z,95.70
2022-11-17T03:56:26.521Z,95.70
2022-11-17T03:59:21.635Z,95.70
2022-11-17T04:02:11.846Z,95.70
2022-11-17T04:05:09.289Z,95.70
2022-11-17T04:08:00.157Z,95.70
2022-11-17T04:11:05.378Z,95.60
2022-11-17T04:14:17.001Z,95.60
2022-11-17T04:17:07.713Z,95.70
2022-11-17T04:19:56.050Z,95.70
2022-11-17T04:22:45.368Z,95.70
2022-11-17T04:25:51.426Z,95.70
2022-11-17T04:28:43.352Z,95.70
2022-11-17T04:31:33.376Z,95.70
2022-11-17T04:34:22.366Z,95.70
2022-11-17T04:37:18.720Z,95.70
2022-11-17T04:40:10.709Z,95.70
2022-11-17T04:43:01.595Z,95.70
2022-11-17T04:45:53.322Z,95.70
2022-11-17T04:48:43.475Z,95.70
2022-11-17T04:51:33.646Z,95.70
2022-11-17T04:54:25.914Z,95.70
2022-11-17T04:57:15.403Z,95.70
2022-11-17T05:00:06.150Z,95.70
2022-11-17T05:03:00.916Z,95.70
2022-11-17T05:05:51.192Z,95.70
2022-11-17T05:08:42.032Z,95.70
2022-11-17T05:11:47.465Z,95.70
2022-11-17T05:14:35.804Z,95.70
2022-11-17T05:17:24.882Z,95.70
2022-11-17T05:20:14.729Z,95.70
2022-11-17T05:23:18.534Z,95.70
2022-11-17T05:26:06.958Z,95.70
2022-11-17T05:28:57.780Z,95.70
2022-11-17T05:31:52.917Z,95.80
2022-11-17T05:34:43.715Z,95.70
2022-11-17T05:37:35.921Z,95.80
2022-11-17T05:40:25.475Z,95.80
2022-11-17T05:43:16.320Z,95.80
2022-11-17T05:46:06.958Z,95.80
2022-11-17T05:48:57.582Z,95.80
2022-11-17T05:51:52.741Z,95.80
2022-11-17T05:54:45.647Z,95.80
2022-11-17T05:57:38.384Z,95.80
2022-11-17T06:00:30.636Z,95.80
2022-11-17T06:03:22.743Z,95.90
2022-11-17T06:06:14.008Z,95.90
2022-11-17T06:09:03.880Z,95.90
2022-11-17T06:11:58.542Z,95.90
2022-11-17T06:14:52.341Z,95.90
2022-11-17T06:17:50.495Z,96.00
2022-11-17T06:20:45.507Z,96.00
2022-11-17T06:23:40.212Z,96.00
2022-11-17T06:26:31.877Z,96.00
2022-11-17T06:29:25.691Z,96.10
2022-11-17T06:32:17.422Z,96.10
2022-11-17T06:35:12.104Z,96.20
2022-11-17T06:38:05.511Z,96.20
2022-11-17T06:40:56.026Z,96.30
2022-11-17T06:43:46.873Z,96.30
2022-11-17T06:46:43.682Z,96.30
2022-11-17T06:49:38.246Z,96.40
2022-11-17T06:52:28.978Z,96.30
2022-11-17T06:55:18.356Z,96.30
2022-11-17T06:58:13.372Z,96.40
2022-11-17T07:01:06.569Z,96.40
2022-11-17T07:04:00.259Z,96.40
2022-11-17T07:06:51.083Z,96.40
2022-11-17T07:09:43.554Z,96.50
2022-11-17T07:12:35.698Z,96.50
2022-11-17T07:15:27.772Z,96.50
2022-11-17T07:18:18.352Z,96.50
2022-11-17T07:21:11.990Z,96.50
2022-11-17T07:24:01.903Z,96.50
2022-11-17T07:26:53.057Z,96.40
2022-11-17T07:29:46.043Z,96.50
2022-11-17T07:32:37.286Z,96.50
2022-11-17T07:35:31.325Z,96.50
2022-11-17T07:38:25.111Z,96.60
2022-11-17T07:41:18.312Z,96.50
2022-11-17T07:44:09.059Z,96.60
2022-11-17T07:46:59.169Z,96.50
2022-11-17T07:49:47.763Z,96.60
2022-11-17T07:52:40.240Z,96.60
2022-11-17T07:55:30.574Z,96.60
2022-11-17T07:58:18.939Z,96.50
2022-11-17T08:01:07.877Z,96.70
2022-11-17T08:03:56.044Z,96.70
2022-11-17T08:06:43.654Z,96.70
2022-11-17T08:09:32.100Z,96.70
2022-11-17T08:12:21.580Z,96.70
2022-11-17T08:15:10.292Z,96.80
2022-11-17T08:17:59.252Z,96.80
2022-11-17T08:20:47.304Z,96.80
2022-11-17T08:23:36.413Z,96.80
2022-11-17T08:26:25.865Z,96.80
2022-11-17T08:29:15.147Z,96.80
2022-11-17T08:32:03.273Z,96.80
2022-11-17T08:34:51.107Z,96.80
2022-11-17T08:37:42.732Z,96.80
2022-11-17T08:40:30.507Z,96.80
2022-11-17T08:43:18.605Z,96.80
2022-11-17T08:46:12.585Z,96.90
2022-11-17T08:49:03.836Z,97.00
2022-11-17T08:51:54.865Z,97.00
2022-11-17T08:54:45.957Z,96.90
2022-11-17T08:57:37.786Z,97.00
2022-11-17T09:00:30.185Z,97.00
2022-11-17T09:03:25.392Z,97.00
2022-11-17T09:06:18.059Z,97.00
2022-11-17T09:09:08.378Z,96.90
2022-11-17T09:11:58.907Z,96.70
2022-11-17T09:14:49.204Z,96.80
2022-11-17T09:17:43.869Z,96.80
2022-11-17T09:20:40.224Z,96.80
2022-11-17T09:23:32.889Z,96.70
2022-11-17T09:26:22.764Z,96.80
2022-11-17T09:29:13.451Z,96.80
2022-11-17T09:32:05.145Z,96.80
2022-11-17T09:34:56.888Z,96.80
2022-11-17T09:37:53.033Z,96.70
2022-11-17T09:40:43.987Z,96.70
2022-11-17T09:43:40.444Z,96.60
2022-11-17T09:46:40.864Z,96.50
2022-11-17T09:49:40.430Z,96.40
2022-11-17T09:52:50.854Z,96.30
2022-11-17T09:55:46.679Z,96.10
2022-11-17T09:58:43.930Z,96.10
2022-11-17T10:01:32.627Z,95.90
2022-11-17T10:04:20.975Z,95.80
2022-11-17T10:07:12.024Z,95.80
2022-11-17T10:10:02.640Z,95.90
2022-11-17T10:12:57.922Z,95.80
2022-11-17T10:15:50.562Z,95.90
2022-11-17T10:18:40.442Z,95.90
2022-11-17T10:21:31.860Z,95.70
2022-11-17T10:24:35.141Z,95.70
2022-11-17T10:27:29.799Z,95.50
2022-11-17T10:30:32.526Z,95.50
2022-11-17T10:33:41.028Z,95.40
2022-11-17T10:36:34.955Z,95.30
2022-11-17T10:39:40.922Z,95.10
2022-11-17T10:42:32.686Z,95.10
2022-11-17T10:45:24.497Z,95.50
2022-11-17T10:48:28.026Z,94.80
2022-11-17T10:51:26.028Z,94.70
2022-11-17T10:54:25.356Z,94.80
2022-11-17T10:57:21.380Z,94.50
2022-11-17T11:00:32.857Z,94.00
2022-11-17T11:03:26.323Z,93.90
2022-11-17T11:06:28.301Z,93.90
2022-11-17T11:09:24.150Z,93.60
2022-11-17T11:12:21.788Z,93.50
2022-11-17T11:15:19.472Z,93.50
2022-11-17T11:18:20.731Z,93.40
2022-11-17T11:21:17.843Z,93.30
2022-11-17T11:24:27.192Z,93.00
2022-11-17T11:27:37.375Z,92.80
2022-11-17T11:30:27.403Z,92.80
2022-11-17T11:33:35.993Z,92.40
2022-11-17T11:36:34.978Z,92.00
2022-11-17T11:39:39.393Z,91.90
2022-11-17T11:42:50.806Z,91.80
2022-11-17T11:45:51.264Z,91.60
2022-11-17T11:48:45.697Z,91.50
2022-11-17T11:51:42.488Z,91.40
2022-11-17T11:54:44.926Z,91.10
2022-11-17T11:57:41.153Z,91.10
2022-11-17T12:00:33.477Z,91.00
2022-11-17T12:03:31.384Z,90.60
2022-11-17T12:06:47.311Z,90.60
2022-11-17T12:09:51.181Z,90.50
2022-11-17T12:12:43.008Z,90.40
2022-11-17T12:15:37.630Z,90.20
2022-11-17T12:18:33.608Z,90.20
2022-11-17T12:21:27.787Z,89.50
2022-11-17T12:24:22.340Z,89.00
2022-11-17T12:27:43.504Z,88.90
2022-11-17T12:31:06.725Z,89.00
2022-11-17T12:34:20.293Z,88.20
2022-11-17T12:37:27.140Z,88.30
2022-11-17T12:40:47.656Z,87.60
2022-11-17T12:43:36.926Z,87.60
2022-11-17T12:46:32.868Z,87.20
2022-11-17T12:49:33.676Z,86.90
2022-11-17T12:52:31.443Z,86.60
2022-11-17T12:55:25.600Z,85.70
2022-11-17T12:58:39.735Z,85.30
2022-11-17T13:01:41.612Z,84.40
2022-11-17T13:04:43.823Z,85.10
2022-11-17T13:07:39.678Z,84.80
2022-11-17T13:10:30.926Z,84.40
2022-11-17T13:13:21.472Z,85.20
2022-11-17T13:16:14.382Z,84.20
2022-11-17T13:19:03.106Z,83.80
2022-11-17T13:21:59.995Z,83.90
2022-11-17T13:24:51.456Z,83.80
2022-11-17T13:27:52.565Z,83.70
2022-11-17T13:30:51.195Z,83.40
2022-11-17T13:33:40.667Z,84.00
2022-11-17T13:36:28.405Z,83.60
2022-11-17T13:39:24.345Z,83.40
2022-11-17T13:42:18.790Z,83.40
2022-11-17T13:45:11.642Z,83.10
2022-11-17T13:48:03.040Z,83.40
2022-11-17T13:50:56.703Z,83.30
2022-11-17T13:53:48.624Z,83.00
2022-11-17T13:56:41.849Z,83.20
2022-11-17T13:59:36.885Z,83.00
2022-11-17T14:02:30.612Z,82.60
2022-11-17T14:05:28.276Z,82.60
2022-11-17T14:08:29.421Z,82.50
2022-11-17T14:11:23.506Z,82.40
2022-11-17T14:14:18.387Z,82.40
2022-11-17T14:17:22.902Z,82.50
2022-11-17T14:20:34.051Z,82.40
2022-11-17T14:23:24.319Z,82.50
2022-11-17T14:26:25.269Z,82.40
2022-11-17T14:29:19.379Z,82.50
2022-11-17T14:32:11.393Z,82.70
2022-11-17T14:35:05.210Z,82.60
2022-11-17T14:37:57.962Z,82.50
2022-11-17T14:40:48.823Z,82.70
2022-11-17T14:43:38.170Z,83.00
2022-11-17T14:46:29.558Z,83.10
2022-11-17T14:49:19.471Z,82.90
2022-11-17T14:52:11.182Z,83.00
2022-11-17T14:55:02.969Z,82.90
2022-11-17T14:57:52.581Z,82.90
2022-11-17T15:00:42.959Z,83.00
2022-11-17T15:03:33.521Z,82.70
2022-11-17T15:06:23.636Z,82.70
2022-11-17T15:09:18.128Z,82.50
2022-11-17T15:12:08.534Z,82.50
2022-11-17T15:15:00.716Z,82.80
2022-11-17T15:17:52.651Z,82.80
2022-11-17T15:20:42.034Z,83.00
2022-11-17T15:23:32.608Z,83.00
2022-11-17T15:26:26.489Z,83.30
2022-11-17T15:29:22.317Z,83.30
2022-11-17T15:32:13.260Z,83.40
2022-11-17T15:35:07.566Z,83.80
2022-11-17T15:37:58.007Z,84.20
2022-11-17T15:40:57.360Z,84.30
2022-11-17T15:43:52.294Z,84.70
2022-11-17T15:46:47.100Z,85.10
2022-11-17T15:49:37.770Z,85.30
2022-11-17T15:52:48.715Z,85.50
2022-11-17T15:55:36.514Z,85.70
2022-11-17T15:58:24.775Z,86.00
2022-11-17T16:01:15.955Z,86.20
2022-11-17T16:04:05.684Z,86.40
2022-11-17T16:06:54.166Z,86.50
2022-11-17T16:09:44.923Z,86.70
2022-11-17T16:12:34.331Z,86.80
2022-11-17T16:15:22.393Z,87.00
2022-11-17T16:18:11.674Z,87.10
2022-11-17T16:21:05.355Z,87.40
2022-11-17T16:23:56.434Z,87.50
2022-11-17T16:26:45.902Z,87.80
2022-11-17T16:29:33.610Z,88.00
2022-11-17T16:32:21.811Z,88.40
2022-11-17T16:35:11.685Z,88.60
2022-11-17T16:37:59.422Z,88.70
2022-11-17T16:40:47.218Z,88.80
2022-11-17T16:43:38.001Z,89.00
2022-11-17T16:46:32.082Z,89.10
2022-11-17T16:49:21.488Z,89.50
2022-11-17T16:52:11.056Z,89.50
2022-11-17T16:55:04.369Z,89.80
2022-11-17T16:57:52.989Z,90.00
2022-11-17T17:00:41.193Z,90.00
2022-11-17T17:03:28.954Z,90.10
2022-11-17T17:06:19.529Z,90.20
2022-11-17T17:09:11.274Z,90.20
2022-11-17T17:11:59.202Z,90.40
2022-11-17T17:14:47.227Z,90.60
2022-11-17T17:17:35.183Z,90.70
2022-11-17T17:20:23.041Z,90.70
2022-11-17T17:23:11.036Z,90.80
2022-11-17T17:26:04.937Z,90.90
2022-11-17T17:28:56.008Z,91.00
2022-11-17T17:31:44.758Z,91.10
2022-11-17T17:34:32.549Z,91.20
2022-11-17T17:37:20.299Z,91.30
2022-11-17T17:40:09.728Z,91.30
2022-11-17T17:42:59.341Z,91.40
2022-11-17T17:45:47.257Z,91.40
2022-11-17T17:48:36.093Z,91.40
2022-11-17T17:51:25.347Z,91.40
2022-11-17T17:54:17.163Z,91.40
2022-11-17T17:57:04.486Z,91.40
2022-11-17T17:59:53.231Z,91.80
2022-11-17T18:02:40.507Z,91.50
2022-11-17T18:05:27.291Z,91.40
2022-11-17T18:08:14.161Z,91.50
2022-11-17T18:11:01.928Z,91.60
2022-11-17T18:13:50.973Z,91.60
2022-11-17T18:16:39.687Z,91.70
2022-11-17T18:19:31.562Z,91.70
2022-11-17T18:22:20.503Z,91.60
2022-11-17T18:25:09.181Z,91.60
2022-11-17T18:27:58.006Z,91.70
2022-11-17T18:30:45.198Z,91.70
2022-11-17T18:33:34.408Z,91.70
2022-11-17T18:36:22.236Z,91.70
2022-11-17T18:39:09.762Z,91.90
2022-11-17T18:41:57.698Z,92.00
2022-11-17T18:44:44.670Z,92.00
2022-11-17T18:47:31.794Z,92.10
2022-11-17T18:50:20.375Z,92.20
2022-11-17T18:53:07.549Z,92.30
2022-11-17T18:55:54.369Z,92.30
2022-11-17T18:58:43.470Z,92.30
2022-11-17T19:01:31.875Z,92.30
2022-11-17T19:04:18.748Z,92.30
2022-11-17T19:07:07.511Z,92.30
2022-11-17T19:09:54.653Z,92.30
2022-11-17T19:12:41.912Z,92.40
2022-11-17T19:15:29.171Z,92.40
2022-11-17T19:18:16.352Z,92.50
2022-11-17T19:21:06.186Z,92.60
2022-11-17T19:23:55.776Z,93.00
2022-11-17T19:26:42.958Z,92.70
2022-11-17T19:29:30.453Z,92.80
2022-11-17T19:32:17.513Z,92.80
2022-11-17T19:35:14.592Z,92.90
2022-11-17T19:38:04.634Z,92.90
2022-11-17T19:40:53.298Z,93.00
2022-11-17T19:43:45.217Z,93.40
2022-11-17T19:46:33.206Z,93.10
2022-11-17T19:49:20.323Z,93.20
2022-11-17T19:52:08.359Z,93.20
2022-11-17T19:54:55.269Z,93.20
2022-11-17T19:57:43.446Z,93.30
2022-11-17T20:00:30.700Z,93.30
2022-11-17T20:03:18.368Z,93.40
2022-11-17T20:06:05.969Z,93.40
2022-11-17T20:08:52.777Z,93.50
2022-11-17T20:11:40.331Z,93.50
2022-11-17T20:14:30.668Z,93.50
2022-11-17T20:17:17.889Z,93.60
2022-11-17T20:20:05.042Z,93.60
2022-11-17T20:22:51.923Z,93.60
2022-11-17T20:25:39.242Z,93.70
2022-11-17T20:28:26.404Z,93.70
2022-11-17T20:31:16.970Z,93.70
2022-11-17T20:34:05.647Z,93.70
2022-11-17T20:36:53.095Z,93.70
2022-11-17T20:39:40.404Z,93.70
2022-11-17T20:42:27.576Z,93.80
2022-11-17T20:45:14.616Z,93.90
2022-11-17T20:48:03.325Z,93.90
2022-11-17T20:50:59.115Z,93.90
2022-11-17T20:53:46.403Z,94.00
2022-11-17T20:56:33.417Z,94.00
2022-11-17T20:59:20.600Z,94.00
2022-11-17T21:02:08.123Z,94.00
2022-11-17T21:04:56.436Z,94.00
2022-11-17T21:07:43.472Z,94.10
2022-11-17T21:10:30.726Z,94.10
2022-11-17T21:13:17.979Z,94.10
2022-11-17T21:16:06.949Z,94.10
2022-11-17T21:18:54.028Z,94.20
2022-11-17T21:21:42.757Z,94.20
2022-11-17T21:24:29.749Z,94.20
2022-11-17T21:27:19.948Z,94.30
2022-11-17T21:30:07.866Z,94.30
2022-11-17T21:32:55.212Z,94.30
2022-11-17T21:35:42.120Z,94.30
2022-11-17T21:38:31.190Z,94.30
2022-11-17T21:41:19.963Z,94.20
2022-11-17T21:44:07.365Z,94.20
2022-11-17T21:46:54.758Z,94.30
2022-11-17T21:49:41.951Z,94.30
2022-11-17T21:52:28.763Z,94.30
2022-11-17T21:55:17.554Z,94.30
2022-11-17T21:58:04.776Z,94.30
2022-11-17T22:00:52.186Z,94.30
2022-11-17T22:03:40.436Z,94.30
2022-11-17T22:06:27.781Z,94.30
2022-11-17T22:09:15.273Z,94.30
2022-11-17T22:12:03.808Z,94.40
2022-11-17T22:14:50.738Z,94.40
2022-11-17T22:17:37.886Z,94.40
2022-11-17T22:20:25.076Z,94.50
2022-11-17T22:23:12.004Z,94.40
2022-11-17T22:26:00.848Z,94.40
2022-11-17T22:28:54.243Z,94.40
2022-11-17T22:31:41.676Z,94.30
2022-11-17T22:34:28.756Z,94.30
2022-11-17T22:37:15.720Z,94.20
2022-11-17T22:40:03.102Z,94.20
2022-11-17T22:42:53.369Z,94.50
2022-11-17T22:45:41.978Z,94.20
2022-11-17T22:48:28.889Z,94.20
2022-11-17T22:51:37.850Z,94.20
2022-11-17T22:54:25.249Z,94.30
2022-11-17T22:57:12.601Z,94.30
2022-11-17T22:59:59.670Z,94.30
2022-11-17T23:02:48.150Z,94.20
2022-11-17T23:05:35.123Z,94.20
2022-11-17T23:08:22.383Z,94.20
2022-11-17T23:11:38.498Z,94.20
2022-11-17T23:14:18.720Z,94.20
2022-11-17T23:17:05.992Z,94.20
2022-11-17T23:19:54.614Z,94.20
2022-11-17T23:22:41.427Z,94.30
2022-11-17T23:25:28.863Z,94.20
2022-11-17T23:28:15.881Z,94.30
2022-11-17T23:31:03.756Z,94.30
2022-11-17T23:33:50.971Z,94.40
2022-11-17T23:36:39.399Z,94.40
2022-11-17T23:39:26.327Z,94.50
2022-11-17T23:42:13.517Z,94.50
2022-11-17T23:45:00.362Z,94.60
2022-11-17T23:47:47.436Z,94.70
2022-11-17T23:50:34.824Z,94.80
2022-11-17T23:53:23.008Z,94.80
2022-11-17T23:56:11.349Z,94.70
2022-11-17T23:58:59.065Z,94.80
